createdAt,value
2017-07-28T00:01:59.818Z,18.58
2017-07-28T00:04:27.210Z,18.53
2017-07-28T00:06:54.612Z,18.38
2017-07-28T00:09:22.011Z,18.28
2017-07-28T00:11:49.408Z,18.23
2017-07-28T00:14:16.823Z,18.19
2017-07-28T00:16:44.218Z,18.05
2017-07-28T00:19:11.610Z,18.03
2017-07-28T00:21:39.015Z,18.01
2017-07-28T00:24:06.410Z,17.94
2017-07-28T00:26:33.795Z,17.90
2017-07-28T00:29:01.290Z,17.89
2017-07-28T00:31:28.674Z,17.90
2017-07-28T00:33:56.071Z,17.83
2017-07-28T00:36:24.391Z,17.80
2017-07-28T00:38:51.784Z,17.75
2017-07-28T00:41:19.187Z,17.76
2017-07-28T00:43:47.067Z,17.65
2017-07-28T00:46:14.459Z,17.57
2017-07-28T00:48:41.846Z,17.55
2017-07-28T00:51:09.547Z,17.41
2017-07-28T00:53:36.938Z,17.45
2017-07-28T00:56:04.339Z,17.44
2017-07-28T00:58:31.771Z,17.33
2017-07-28T01:00:59.163Z,17.37
2017-07-28T01:03:26.550Z,17.41
2017-07-28T01:05:54.294Z,17.25
2017-07-28T01:08:21.681Z,17.28
2017-07-28T01:10:49.082Z,17.29
2017-07-28T01:13:16.638Z,17.23
2017-07-28T01:15:44.030Z,17.22
2017-07-28T01:18:11.414Z,17.11
2017-07-28T01:20:38.959Z,17.01
2017-07-28T01:23:06.346Z,16.92
2017-07-28T01:25:33.734Z,16.82
2017-07-28T01:28:01.134Z,16.70
2017-07-28T01:30:28.527Z,16.61
2017-07-28T01:32:55.910Z,16.51
2017-07-28T01:35:23.454Z,16.43
2017-07-28T01:37:50.834Z,16.38
2017-07-28T01:40:18.222Z,16.31
2017-07-28T01:42:45.774Z,16.23
2017-07-28T01:45:13.164Z,16.17
2017-07-28T01:47:40.555Z,16.11
2017-07-28T01:50:08.323Z,16.02
2017-07-28T01:52:35.711Z,15.96
2017-07-28T01:55:03.099Z,15.89
2017-07-28T01:57:30.539Z,15.80
2017-07-28T01:59:57.927Z,15.78
2017-07-28T02:02:25.327Z,15.73
2017-07-28T02:04:52.862Z,15.77
2017-07-28T02:07:20.258Z,15.80
2017-07-28T02:09:47.655Z,15.81
2017-07-28T02:12:15.439Z,15.86
2017-07-28T02:14:42.824Z,15.87
2017-07-28T02:17:10.213Z,15.88
2017-07-28T02:19:37.816Z,15.87
2017-07-28T02:22:05.211Z,15.85
2017-07-28T02:24:32.598Z,15.83
2017-07-28T02:27:00.034Z,15.77
2017-07-28T02:29:27.422Z,15.71
2017-07-28T02:31:54.811Z,15.74
2017-07-28T02:34:22.227Z,15.70
2017-07-28T02:36:49.614Z,15.69
2017-07-28T02:39:17.002Z,15.67
2017-07-28T02:41:44.622Z,15.65
2017-07-28T02:44:12.018Z,15.64
2017-07-28T02:46:39.419Z,15.62
2017-07-28T02:49:07.305Z,15.63
2017-07-28T02:51:34.694Z,15.62
2017-07-28T02:54:02.078Z,15.62
2017-07-28T02:56:29.479Z,15.63
2017-07-28T02:58:56.862Z,15.61
2017-07-28T03:01:24.251Z,15.56
2017-07-28T03:03:51.790Z,15.53
2017-07-28T03:06:19.183Z,15.55
2017-07-28T03:08:46.563Z,15.58
2017-07-28T03:11:14.223Z,15.54
2017-07-28T03:13:41.614Z,15.52
2017-07-28T03:16:09.003Z,15.51
2017-07-28T03:18:36.440Z,15.47
2017-07-28T03:21:03.832Z,15.47
2017-07-28T03:23:31.215Z,15.49
2017-07-28T03:25:58.659Z,15.46
2017-07-28T03:28:26.071Z,15.45
2017-07-28T03:30:53.459Z,15.48
2017-07-28T03:33:20.879Z,15.48
2017-07-28T03:35:48.266Z,15.42
2017-07-28T03:38:15.652Z,15.44
2017-07-28T03:40:43.193Z,15.39
2017-07-28T03:43:10.606Z,15.38
2017-07-28T03:45:37.997Z,15.42
2017-07-28T03:48:05.562Z,15.39
2017-07-28T03:50:32.958Z,15.40
2017-07-28T03:53:00.356Z,15.39
2017-07-28T03:55:27.851Z,15.41
2017-07-28T03:57:55.238Z,15.40
2017-07-28T04:00:22.626Z,15.39
2017-07-28T04:02:50.043Z,15.38
2017-07-28T04:05:17.432Z,15.42
2017-07-28T04:07:44.818Z,15.41
2017-07-28T04:10:12.227Z,15.38
2017-07-28T04:12:39.623Z,15.35
2017-07-28T04:15:07.010Z,15.37
2017-07-28T04:17:34.546Z,15.41
2017-07-28T04:20:01.940Z,15.42
2017-07-28T04:22:29.332Z,15.43
2017-07-28T04:24:56.877Z,15.43
2017-07-28T04:27:24.258Z,15.34
2017-07-28T04:29:51.652Z,15.36
2017-07-28T04:32:19.148Z,15.37
2017-07-28T04:34:46.526Z,15.34
2017-07-28T04:37:13.922Z,15.32
2017-07-28T04:39:41.318Z,15.28
2017-07-28T04:42:08.706Z,15.27
2017-07-28T04:44:36.095Z,15.27
2017-07-28T04:47:03.842Z,15.27
2017-07-28T04:49:31.205Z,15.20
2017-07-28T04:51:58.610Z,15.30
2017-07-28T04:54:26.139Z,15.32
2017-07-28T04:56:53.538Z,15.37
2017-07-28T04:59:20.931Z,15.39
2017-07-28T05:01:48.351Z,15.45
2017-07-28T05:04:15.735Z,15.44
2017-07-28T05:06:43.126Z,15.47
2017-07-28T05:09:10.581Z,15.48
2017-07-28T05:11:37.968Z,15.55
2017-07-28T05:14:05.350Z,15.57
2017-07-28T05:16:32.846Z,15.60
2017-07-28T05:19:00.233Z,15.64
2017-07-28T05:21:27.614Z,15.70
2017-07-28T05:23:55.378Z,15.78
2017-07-28T05:26:22.757Z,15.90
2017-07-28T05:28:50.184Z,16.01
2017-07-28T05:31:18.463Z,15.99
2017-07-28T05:33:45.944Z,16.01
2017-07-28T05:36:13.372Z,15.99
2017-07-28T05:38:40.897Z,15.98
2017-07-28T05:41:08.336Z,15.98
2017-07-28T05:43:35.730Z,16.02
2017-07-28T05:46:03.327Z,16.01
2017-07-28T05:48:30.746Z,16.03
2017-07-28T05:50:58.169Z,16.03
2017-07-28T05:53:25.777Z,16.07
2017-07-28T05:55:53.182Z,16.13
2017-07-28T05:58:21.762Z,16.17
2017-07-28T06:00:49.422Z,16.21
2017-07-28T06:03:18.214Z,16.26
2017-07-28T06:08:39.734Z,16.53
2017-07-28T06:11:07.590Z,16.64
2017-07-28T06:13:35.027Z,16.77
2017-07-28T06:16:02.462Z,16.91
2017-07-28T06:18:29.959Z,16.95
2017-07-28T06:20:57.376Z,17.00
2017-07-28T06:23:24.790Z,17.01
2017-07-28T06:25:53.217Z,17.12
2017-07-28T06:28:20.694Z,17.19
2017-07-28T06:30:49.710Z,17.37
2017-07-28T06:33:19.686Z,17.58
2017-07-28T06:35:47.155Z,17.77
2017-07-28T06:38:14.654Z,17.92
2017-07-28T06:40:42.222Z,18.11
2017-07-28T06:43:09.648Z,18.18
2017-07-28T06:45:37.026Z,18.20
2017-07-28T06:48:04.787Z,18.18
2017-07-28T06:50:32.230Z,18.17
2017-07-28T06:52:59.630Z,18.23
2017-07-28T06:55:27.251Z,18.26
2017-07-28T06:57:55.190Z,18.18
2017-07-28T07:00:22.600Z,18.04
2017-07-28T07:02:50.172Z,18.00
2017-07-28T07:05:17.592Z,17.97
2017-07-28T07:07:45.016Z,18.03
2017-07-28T07:10:12.636Z,18.01
2017-07-28T07:12:41.015Z,18.02
2017-07-28T07:15:09.358Z,18.21
2017-07-28T07:17:36.927Z,18.34
2017-07-28T07:20:04.354Z,18.61
2017-07-28T07:22:31.762Z,18.66
2017-07-28T07:24:59.277Z,18.57
2017-07-28T07:27:26.698Z,18.65
2017-07-28T07:29:54.123Z,18.66
2017-07-28T07:32:21.542Z,18.85
2017-07-28T07:34:48.976Z,18.96
2017-07-28T07:37:16.374Z,18.75
2017-07-28T07:39:43.997Z,18.74
2017-07-28T07:42:11.382Z,18.93
2017-07-28T07:44:38.846Z,19.10
2017-07-28T07:47:06.348Z,18.83
2017-07-28T07:49:33.834Z,18.68
2017-07-28T07:52:01.241Z,18.62
2017-07-28T07:54:28.686Z,18.65
2017-07-28T07:56:56.161Z,18.76
2017-07-28T07:59:23.579Z,18.91
2017-07-28T08:01:51.070Z,19.06
2017-07-28T08:04:18.467Z,19.29
2017-07-28T08:06:45.927Z,19.33
2017-07-28T08:09:13.541Z,19.49
2017-07-28T08:11:40.961Z,19.53
2017-07-28T08:14:08.799Z,19.64
2017-07-28T08:16:36.874Z,19.75
2017-07-28T08:19:04.306Z,19.88
2017-07-28T08:21:31.712Z,20.18
2017-07-28T08:23:59.681Z,20.31
2017-07-28T08:26:27.070Z,20.32
2017-07-28T08:28:54.505Z,20.19
2017-07-28T08:31:32.191Z,20.36
2017-07-28T08:33:59.638Z,20.48
2017-07-28T08:36:27.042Z,20.62
2017-07-28T08:38:54.558Z,20.48
2017-07-28T08:41:21.967Z,20.38
2017-07-28T08:43:49.388Z,20.41
2017-07-28T08:46:16.887Z,20.71
2017-07-28T08:48:44.310Z,20.55
2017-07-28T08:51:11.722Z,20.36
2017-07-28T08:53:39.229Z,20.43
2017-07-28T08:56:06.628Z,20.57
2017-07-28T08:58:34.512Z,20.51
2017-07-28T09:01:02.318Z,20.71
2017-07-28T09:03:29.749Z,20.70
2017-07-28T09:06:05.204Z,20.69
2017-07-28T09:08:32.591Z,20.76
2017-07-28T09:11:00.005Z,20.69
2017-07-28T09:13:27.565Z,20.68
2017-07-28T09:15:55.039Z,20.55
2017-07-28T09:18:22.529Z,20.65
2017-07-28T09:20:49.962Z,20.86
2017-07-28T09:23:17.424Z,20.93
2017-07-28T09:25:44.831Z,20.78
2017-07-28T09:28:12.255Z,20.93
2017-07-28T09:30:39.686Z,20.99
2017-07-28T09:33:07.095Z,21.15
2017-07-28T09:35:34.519Z,21.06
2017-07-28T09:38:01.924Z,21.03
2017-07-28T09:40:29.313Z,20.97
2017-07-28T09:42:56.758Z,21.11
2017-07-28T09:45:24.194Z,21.16
2017-07-28T09:47:51.589Z,20.97
2017-07-28T09:50:19.173Z,20.70
2017-07-28T09:52:46.566Z,20.73
2017-07-28T09:55:14.046Z,21.07
2017-07-28T09:57:41.510Z,20.89
2017-07-28T10:00:08.934Z,20.72
2017-07-28T10:02:36.383Z,20.78
2017-07-28T10:05:04.111Z,20.93
2017-07-28T10:07:31.506Z,21.18
2017-07-28T10:09:58.938Z,21.41
2017-07-28T10:12:26.735Z,21.69
2017-07-28T10:15:05.181Z,22.02
2017-07-28T10:17:32.713Z,22.13
2017-07-28T10:20:00.134Z,22.63
2017-07-28T10:22:27.535Z,22.68
2017-07-28T10:24:55.106Z,22.22
2017-07-28T10:27:22.510Z,22.04
2017-07-28T10:29:49.947Z,22.53
2017-07-28T10:32:17.358Z,22.26
2017-07-28T10:34:45.730Z,21.78
2017-07-28T10:37:13.135Z,21.71
2017-07-28T10:39:41.752Z,22.13
2017-07-28T10:42:09.198Z,22.95
2017-07-28T10:44:36.577Z,22.74
2017-07-28T10:47:03.992Z,22.97
2017-07-28T10:49:31.431Z,23.31
2017-07-28T10:51:58.812Z,22.98
2017-07-28T10:54:26.321Z,22.52
2017-07-28T10:56:53.734Z,22.19
2017-07-28T10:59:21.138Z,22.10
2017-07-28T11:01:49.024Z,22.26
2017-07-28T11:04:16.413Z,22.24
2017-07-28T11:06:43.851Z,22.10
2017-07-28T11:09:11.319Z,22.32
2017-07-28T11:11:38.720Z,22.62
2017-07-28T11:14:06.145Z,22.92
2017-07-28T11:16:33.670Z,22.64
2017-07-28T11:19:01.112Z,22.90
2017-07-28T11:21:28.514Z,22.86
2017-07-28T11:23:55.934Z,23.07
2017-07-28T11:26:23.326Z,23.07
2017-07-28T11:28:50.730Z,22.97
2017-07-28T11:31:18.657Z,23.08
2017-07-28T11:33:46.050Z,22.86
2017-07-28T11:36:13.445Z,22.82
2017-07-28T11:38:41.000Z,22.67
2017-07-28T11:41:08.418Z,22.66
2017-07-28T11:43:35.833Z,23.01
2017-07-28T11:46:03.274Z,23.24
2017-07-28T11:48:30.678Z,22.75
2017-07-28T11:50:58.137Z,22.61
2017-07-28T11:53:25.883Z,22.26
2017-07-28T11:55:53.270Z,22.32
2017-07-28T11:58:20.674Z,22.33
2017-07-28T12:00:48.207Z,22.42
2017-07-28T12:03:15.604Z,22.59
2017-07-28T12:05:43.907Z,22.49
2017-07-28T12:08:11.331Z,22.57
2017-07-28T12:10:38.757Z,22.57
2017-07-28T12:13:06.165Z,22.47
2017-07-28T12:15:33.731Z,22.53
2017-07-28T12:18:01.137Z,22.59
2017-07-28T12:20:28.532Z,22.51
2017-07-28T12:22:56.109Z,22.93
2017-07-28T12:25:24.486Z,23.33
2017-07-28T12:27:51.982Z,23.19
2017-07-28T12:30:19.495Z,23.12
2017-07-28T12:32:46.926Z,22.98
2017-07-28T12:35:14.333Z,23.40
2017-07-28T12:37:41.822Z,23.37
2017-07-28T12:40:10.176Z,23.36
2017-07-28T12:42:37.775Z,23.50
2017-07-28T12:45:05.463Z,23.40
2017-07-28T12:47:33.001Z,22.82
2017-07-28T12:50:00.411Z,22.93
2017-07-28T12:52:27.921Z,23.26
2017-07-28T12:54:55.394Z,23.57
2017-07-28T12:57:22.780Z,23.54
2017-07-28T12:59:50.327Z,23.01
2017-07-28T13:02:17.716Z,22.79
2017-07-28T13:04:45.111Z,22.58
2017-07-28T13:07:12.619Z,22.54
2017-07-28T13:09:40.079Z,22.35
2017-07-28T13:12:07.509Z,22.47
2017-07-28T13:14:34.968Z,22.45
2017-07-28T13:17:02.397Z,22.58
2017-07-28T13:19:29.894Z,22.38
2017-07-28T13:21:57.396Z,22.35
2017-07-28T13:24:24.792Z,22.43
2017-07-28T13:26:52.314Z,22.49
2017-07-28T13:29:19.863Z,22.66
2017-07-28T13:31:47.251Z,22.84
2017-07-28T13:34:14.730Z,22.83
2017-07-28T13:36:42.614Z,23.28
2017-07-28T13:39:10.063Z,23.38
2017-07-28T13:41:37.470Z,23.27
2017-07-28T13:44:05.374Z,23.25
2017-07-28T13:46:38.448Z,23.47
2017-07-28T13:49:05.879Z,23.51
2017-07-28T13:51:33.305Z,23.24
2017-07-28T13:54:00.687Z,23.06
2017-07-28T13:56:28.267Z,23.33
2017-07-28T13:58:55.659Z,23.65
2017-07-28T14:01:23.087Z,24.04
2017-07-28T14:03:50.729Z,23.91
2017-07-28T14:06:18.155Z,24.09
2017-07-28T14:08:45.597Z,24.27
2017-07-28T14:11:13.040Z,24.06
2017-07-28T14:13:40.435Z,24.04
2017-07-28T14:16:07.875Z,23.75
2017-07-28T14:18:35.406Z,23.50
2017-07-28T14:21:02.795Z,23.35
2017-07-28T14:23:30.208Z,23.28
2017-07-28T14:25:57.754Z,23.56
2017-07-28T14:28:25.204Z,23.36
2017-07-28T14:30:52.712Z,23.33
2017-07-28T14:33:20.254Z,23.30
2017-07-28T14:35:47.642Z,23.46
2017-07-28T14:38:15.030Z,23.57
2017-07-28T14:40:42.671Z,23.38
2017-07-28T14:43:10.068Z,23.43
2017-07-28T14:45:37.500Z,23.08
2017-07-28T14:48:06.144Z,22.93
2017-07-28T14:50:33.583Z,22.95
2017-07-28T14:53:00.955Z,23.04
2017-07-28T14:55:28.439Z,23.19
2017-07-28T14:57:55.891Z,23.13
2017-07-28T15:00:23.329Z,23.01
2017-07-28T15:02:50.899Z,22.80
2017-07-28T15:05:18.303Z,22.90
2017-07-28T15:07:45.715Z,23.23
2017-07-28T15:10:13.514Z,23.27
2017-07-28T15:12:40.937Z,23.04
2017-07-28T15:15:08.367Z,23.08
2017-07-28T15:17:35.968Z,23.10
2017-07-28T15:20:03.383Z,23.14
2017-07-28T15:22:30.802Z,23.08
2017-07-28T15:25:02.399Z,23.07
2017-07-28T15:27:29.797Z,23.22
2017-07-28T15:29:57.208Z,23.35
2017-07-28T15:32:25.142Z,23.36
2017-07-28T15:34:52.685Z,23.35
2017-07-28T15:37:20.118Z,23.32
2017-07-28T15:39:47.726Z,23.28
2017-07-28T15:42:15.105Z,23.20
2017-07-28T15:44:42.515Z,23.26
2017-07-28T15:47:10.125Z,23.04
2017-07-28T15:49:37.527Z,23.05
2017-07-28T15:52:04.954Z,23.18
2017-07-28T15:54:32.522Z,23.18
2017-07-28T15:56:59.954Z,23.38
2017-07-28T15:59:27.375Z,23.44
2017-07-28T16:01:54.886Z,23.43
2017-07-28T16:04:22.286Z,23.26
2017-07-28T16:06:49.711Z,23.25
2017-07-28T16:09:17.162Z,23.09
2017-07-28T16:11:44.572Z,22.94
2017-07-28T16:14:11.983Z,22.93
2017-07-28T16:16:39.775Z,22.85
2017-07-28T16:19:07.180Z,22.82
2017-07-28T16:21:34.651Z,22.74
2017-07-28T16:24:02.176Z,22.76
2017-07-28T16:26:31.538Z,22.92
2017-07-28T16:28:58.942Z,22.93
2017-07-28T16:31:26.748Z,22.83
2017-07-28T16:33:54.139Z,22.76
2017-07-28T16:36:21.561Z,22.75
2017-07-28T16:38:48.978Z,22.68
2017-07-28T16:41:16.391Z,22.67
2017-07-28T16:43:43.829Z,22.73
2017-07-28T16:46:11.954Z,22.94
2017-07-28T16:48:39.386Z,23.09
2017-07-28T16:51:06.786Z,23.06
2017-07-28T16:53:34.410Z,23.05
2017-07-28T16:56:01.852Z,22.89
2017-07-28T16:58:29.334Z,22.83
2017-07-28T17:00:57.058Z,22.83
2017-07-28T17:03:25.640Z,22.78
2017-07-28T17:05:53.047Z,22.63
2017-07-28T17:08:20.447Z,22.68
2017-07-28T17:10:47.846Z,22.82
2017-07-28T17:13:17.001Z,22.91
2017-07-28T17:15:44.468Z,23.11
2017-07-28T17:18:11.851Z,23.11
2017-07-28T17:20:39.277Z,23.07
2017-07-28T17:23:06.810Z,23.24
2017-07-28T17:25:34.233Z,23.23
2017-07-28T17:28:01.628Z,23.29
2017-07-28T17:30:29.428Z,23.18
2017-07-28T17:32:56.811Z,23.06
2017-07-28T17:35:24.282Z,22.89
2017-07-28T17:37:51.699Z,22.81
2017-07-28T17:40:19.114Z,22.75
2017-07-28T17:42:53.384Z,22.68
2017-07-28T17:45:20.793Z,22.56
2017-07-28T17:47:48.203Z,22.50
2017-07-28T17:50:16.030Z,22.49
2017-07-28T17:52:43.494Z,22.45
2017-07-28T17:55:10.873Z,22.39
2017-07-28T17:57:38.684Z,22.37
2017-07-28T18:00:06.259Z,22.33
2017-07-28T18:02:33.689Z,22.24
2017-07-28T18:05:01.476Z,22.27
2017-07-28T18:07:28.890Z,22.26
2017-07-28T18:09:56.279Z,22.20
2017-07-28T18:12:23.947Z,22.16
2017-07-28T18:14:51.374Z,22.07
2017-07-28T18:17:18.774Z,22.09
2017-07-28T18:19:46.328Z,22.10
2017-07-28T18:22:13.720Z,22.14
2017-07-28T18:24:41.214Z,22.15
2017-07-28T18:27:08.649Z,22.05
2017-07-28T18:29:36.038Z,22.07
2017-07-28T18:32:03.458Z,22.14
2017-07-28T18:34:31.013Z,22.06
2017-07-28T18:36:58.430Z,21.98
2017-07-28T18:39:25.977Z,21.77
2017-07-28T18:41:53.653Z,21.73
2017-07-28T18:44:21.324Z,21.55
2017-07-28T18:46:48.845Z,21.28
2017-07-28T18:49:16.823Z,21.28
2017-07-28T18:51:44.274Z,21.20
2017-07-28T18:54:11.764Z,21.14
2017-07-28T18:56:39.283Z,21.06
2017-07-28T18:59:06.708Z,20.99
2017-07-28T19:01:34.139Z,20.88
2017-07-28T19:04:01.542Z,20.78
2017-07-28T19:06:28.961Z,20.77
2017-07-28T19:08:56.359Z,20.70
2017-07-28T19:11:23.864Z,20.65
2017-07-28T19:13:51.306Z,20.58
2017-07-28T19:16:18.698Z,20.56
2017-07-28T19:18:46.365Z,20.50
2017-07-28T19:21:13.787Z,20.41
2017-07-28T19:23:41.199Z,20.39
2017-07-28T19:26:08.852Z,20.35
2017-07-28T19:28:36.301Z,20.30
2017-07-28T19:31:03.679Z,20.26
2017-07-28T19:33:31.214Z,20.23
2017-07-28T19:35:58.633Z,20.19
2017-07-28T19:38:26.088Z,20.17
2017-07-28T19:40:53.531Z,20.14
2017-07-28T19:43:20.958Z,20.12
2017-07-28T19:45:48.389Z,20.08
2017-07-28T19:48:19.218Z,20.06
2017-07-28T19:50:46.666Z,20.06
2017-07-28T19:53:14.054Z,20.05
2017-07-28T19:55:41.627Z,20.05
2017-07-28T19:58:09.040Z,20.03
2017-07-28T20:00:36.483Z,19.98
2017-07-28T20:03:04.952Z,19.92
2017-07-28T20:05:33.483Z,19.86
2017-07-28T20:08:01.608Z,19.75
2017-07-28T20:10:29.397Z,19.64
2017-07-28T20:12:56.790Z,19.22
2017-07-28T20:15:24.332Z,19.13
2017-07-28T20:17:51.902Z,19.06
2017-07-28T20:20:19.325Z,18.92
2017-07-28T20:22:46.794Z,18.90
2017-07-28T20:25:14.382Z,18.88
2017-07-28T20:27:42.506Z,18.99
2017-07-28T20:30:09.908Z,19.14
2017-07-28T20:32:37.705Z,19.22
2017-07-28T20:35:05.123Z,19.27
2017-07-28T20:37:32.548Z,19.30
2017-07-28T20:40:00.313Z,19.36
2017-07-28T20:42:27.743Z,19.33
2017-07-28T20:44:55.936Z,19.19
2017-07-28T20:47:23.378Z,19.06
2017-07-28T20:49:50.766Z,18.97
2017-07-28T20:52:18.183Z,18.76
2017-07-28T20:54:45.599Z,18.58
2017-07-28T20:57:13.391Z,18.31
2017-07-28T20:59:40.827Z,18.27
2017-07-28T21:02:08.564Z,18.18
2017-07-28T21:04:35.986Z,18.08
2017-07-28T21:07:03.426Z,17.93
2017-07-28T21:09:30.992Z,17.93
2017-07-28T21:11:59.491Z,17.88
2017-07-28T21:14:27.637Z,17.86
2017-07-28T21:16:55.130Z,17.86
2017-07-28T21:19:22.575Z,17.84
2017-07-28T21:21:49.983Z,17.73
2017-07-28T21:24:17.439Z,17.74
2017-07-28T21:26:44.838Z,17.80
2017-07-28T21:29:12.287Z,17.79
2017-07-28T21:31:39.855Z,17.94
2017-07-28T21:34:07.282Z,18.00
2017-07-28T21:36:34.812Z,18.05
2017-07-28T21:39:02.386Z,18.10
2017-07-28T21:41:29.828Z,18.17
2017-07-28T21:43:57.252Z,18.19
2017-07-28T21:46:24.883Z,18.19
2017-07-28T21:48:52.321Z,18.24
2017-07-28T21:51:19.750Z,18.26
2017-07-28T21:53:47.304Z,18.29
2017-07-28T21:56:14.707Z,18.29
2017-07-28T21:58:42.107Z,18.28
2017-07-28T22:01:09.672Z,18.27
2017-07-28T22:03:37.084Z,18.23
2017-07-28T22:06:04.521Z,18.27
2017-07-28T22:08:31.971Z,18.26
2017-07-28T22:10:59.382Z,18.26
2017-07-28T22:13:26.777Z,18.24
2017-07-28T22:15:54.200Z,18.16
2017-07-28T22:18:21.622Z,18.02
2017-07-28T22:20:49.062Z,18.02
2017-07-28T22:23:16.578Z,17.95
2017-07-28T22:25:43.979Z,18.02
2017-07-28T22:28:11.414Z,18.05
2017-07-28T22:30:38.873Z,18.11
2017-07-28T22:33:06.307Z,18.12
2017-07-28T22:35:33.704Z,18.19
2017-07-28T22:38:01.177Z,18.16
2017-07-28T22:40:28.582Z,18.20
2017-07-28T22:42:55.978Z,18.22
2017-07-28T22:45:23.630Z,18.20
2017-07-28T22:47:51.080Z,18.20
2017-07-28T22:50:18.514Z,18.19
2017-07-28T22:52:46.073Z,18.20
2017-07-28T22:55:13.474Z,18.20
2017-07-28T22:57:40.871Z,18.19
2017-07-28T23:00:08.447Z,18.21
2017-07-28T23:02:35.862Z,18.16
2017-07-28T23:05:03.262Z,18.15
2017-07-28T23:07:30.793Z,18.10
2017-07-28T23:09:58.193Z,18.11
2017-07-28T23:12:25.659Z,18.12
2017-07-28T23:14:53.528Z,18.13
2017-07-28T23:17:20.939Z,18.14
2017-07-28T23:19:48.363Z,18.14
2017-07-28T23:22:15.798Z,18.16
2017-07-28T23:24:43.226Z,18.16
2017-07-28T23:27:10.647Z,18.17
2017-07-28T23:29:38.478Z,18.14
2017-07-28T23:32:05.923Z,18.15
2017-07-28T23:34:33.327Z,18.15
2017-07-28T23:37:00.937Z,18.17
2017-07-28T23:39:28.372Z,18.19
2017-07-28T23:41:55.754Z,18.21
2017-07-28T23:44:23.475Z,18.18
2017-07-28T23:46:50.903Z,18.16
2017-07-28T23:49:18.316Z,18.14
2017-07-28T23:51:45.862Z,18.11
2017-07-28T23:54:13.265Z,18.10
2017-07-28T23:56:40.678Z,18.14
2017-07-28T23:59:08.109Z,18.16
